ilmateenistus.ee keskkonnaagentuur.ee
EETN Tallinna lennuväli
FTEO31 EETN 241100
TAF EETN 241125Z 2412/2512 30010KT 9999 BKN015 BECMG 2413/2415 SCT020
    BECMG 2418/2420 VRB02KT PROB40 TEMPO 2421/2505 1200 BR BCFG BKN003
    BECMG 2507/2509 23010KT=

METAR EETN 241320Z 32007KT 9999 BKN021 17/14 Q1023 NOSIG=
Tallinna lennuväli
EEKA Kärdla lennuväli
FCEO32 EETN 241100
TAF EEKA 241100Z 2412/2418 30008KT 9999 SCT040=

METAR EEKA 241250Z 30006KT CAVOK 20/13 Q1024=
Kärdla lennuväli
EEKE Kuressaare lennuväli
METAR EEKE 241250Z 31008KT 260V010 9999 FEW042 22/13 Q1024=
Kuressaare lennuväli
EEPU Pärnu lennuväli
METAR EEPU 241250Z 29011KT 240V320 9999 FEW043 21/09 Q1023=
Pärnu lennuväli
EETU Tartu lennuväli
FCEO32 EETN 241100
TAF EETU 241100Z 2412/2418 31009KT 9999 SCT020 SCT030=

METAR EETU 241320Z 25007KT 230V300 9999 SCT029 20/13 Q1022=
Tartu lennuväli